Time;durP1;ratioP1;P1;durP2;ratioP2;P2;SDS_P1;SDS_P2;PMS_P1;PMS_P2;Temp;Humidity;BMP_temperature;BMP_pressure;BME280_temperature;BME280_humidity;BME280_pressure;Samples;Min_cycle;Max_cycle;Signal;HPM_P1;HPM_P2
2021/01/19 00:01:09;;;;;;;26.85;18.42;;;10.10;99.90;;;;;;5026485;28;20132;-81
2021/01/19 00:03:35;;;;;;;28.08;18.83;;;10.10;99.90;;;;;;5027693;28;20057;-82
2021/01/19 00:06:01;;;;;;;24.33;17.98;;;10.10;99.90;;;;;;5010162;28;20504;-81
2021/01/19 00:08:27;;;;;;;29.25;18.90;;;10.10;99.90;;;;;;5026603;28;20429;-80
2021/01/19 00:10:52;;;;;;;25.95;18.63;;;10.00;99.90;;;;;;5010143;28;20065;-81
2021/01/19 00:13:20;;;;;;;29.05;19.08;;;10.00;99.90;;;;;;5026509;28;20476;-79
2021/01/19 00:15:47;;;;;;;27.27;19.17;;;10.10;99.90;;;;;;5026353;28;20047;-81
2021/01/19 00:18:13;;;;;;;30.20;19.83;;;10.00;99.90;;;;;;5027709;28;20376;-81
2021/01/19 00:20:40;;;;;;;28.58;19.45;;;10.00;99.90;;;;;;5026190;28;20040;-81
2021/01/19 00:23:06;;;;;;;29.33;20.33;;;10.00;99.90;;;;;;5026411;28;20034;-78
2021/01/19 00:25:31;;;;;;;28.67;19.55;;;10.00;99.90;;;;;;5027491;28;20036;-80
2021/01/19 00:27:57;;;;;;;29.00;19.50;;;10.00;99.90;;;;;;5027673;28;20040;-82
2021/01/19 00:30:23;;;;;;;30.40;19.85;;;10.00;99.90;;;;;;5026388;28;20069;-80
2021/01/19 00:32:48;;;;;;;32.25;21.65;;;10.00;99.90;;;;;;5026159;28;20357;-80
2021/01/19 00:35:14;;;;;;;32.72;19.85;;;10.00;99.90;;;;;;5010189;28;20038;-80
2021/01/19 00:37:40;;;;;;;36.90;22.67;;;10.00;99.90;;;;;;5027631;28;20540;-81
2021/01/19 00:40:06;;;;;;;35.83;21.42;;;10.00;99.90;;;;;;5026192;28;20494;-79
2021/01/19 00:42:32;;;;;;;36.92;21.73;;;10.00;99.90;;;;;;5009483;28;20103;-81
2021/01/19 00:44:58;;;;;;;36.67;21.45;;;10.00;99.90;;;;;;5025976;28;20038;-82
2021/01/19 00:47:23;;;;;;;33.92;22.23;;;10.00;99.90;;;;;;5026224;28;20061;-80
2021/01/19 00:49:49;;;;;;;40.58;24.00;;;10.10;99.90;;;;;;5009955;28;20029;-79
2021/01/19 00:52:14;;;;;;;41.10;22.77;;;10.00;99.90;;;;;;5026220;28;20029;-83
2021/01/19 00:54:40;;;;;;;38.20;22.08;;;10.00;99.90;;;;;;5026085;28;20030;-83
2021/01/19 00:57:09;;;;;;;37.92;22.52;;;10.00;99.90;;;;;;5027122;28;20112;-77
2021/01/19 00:59:34;;;;;;;32.50;19.10;;;10.00;99.90;;;;;;5013342;28;20505;-80
2021/01/19 01:02:00;;;;;;;36.60;21.65;;;10.00;99.90;;;;;;5029749;28;20124;-82
2021/01/19 01:04:26;;;;;;;32.97;20.52;;;10.00;99.90;;;;;;5013387;28;20485;-81
2021/01/19 01:06:53;;;;;;;30.77;17.77;;;10.00;99.90;;;;;;5013054;28;20120;-80
2021/01/19 01:09:19;;;;;;;22.50;14.23;;;10.00;99.90;;;;;;5029609;28;20104;-81
2021/01/19 01:11:45;;;;;;;21.80;12.55;;;10.00;99.90;;;;;;5030794;28;20025;-80
2021/01/19 01:14:12;;;;;;;22.10;12.30;;;10.00;99.90;;;;;;5029411;28;20488;-81
2021/01/19 01:16:39;;;;;;;25.10;12.82;;;10.00;99.90;;;;;;5029492;28;20036;-81
2021/01/19 01:19:05;;;;;;;23.58;12.98;;;10.00;99.90;;;;;;5013241;28;20098;-81
2021/01/19 01:21:38;;;;;;;25.70;11.85;;;10.00;99.90;;;;;;5029560;28;20120;-82
2021/01/19 01:24:05;;;;;;;21.85;11.50;;;10.00;99.90;;;;;;5029471;28;20040;-82
2021/01/19 01:26:31;;;;;;;22.38;11.52;;;10.10;99.90;;;;;;5029219;28;20044;-79
2021/01/19 01:28:57;;;;;;;24.65;11.85;;;10.00;99.90;;;;;;5029143;28;20022;-80
2021/01/19 01:31:22;;;;;;;23.70;11.63;;;10.00;99.90;;;;;;5030281;28;20025;-79
2021/01/19 01:33:48;;;;;;;23.70;11.43;;;10.10;99.90;;;;;;5030451;28;20488;-77
2021/01/19 01:36:14;;;;;;;26.52;11.55;;;10.10;99.90;;;;;;5028913;28;20117;-83
2021/01/19 01:38:40;;;;;;;25.42;11.57;;;10.10;99.90;;;;;;5030337;28;20079;-82
2021/01/19 01:41:20;;;;;;;29.52;12.70;;;10.10;99.90;;;;;;5030225;28;20492;-81
2021/01/19 01:43:47;;;;;;;23.58;11.40;;;10.10;99.90;;;;;;5028864;28;20059;-82
2021/01/19 01:46:17;;;;;;;26.05;12.40;;;10.10;99.90;;;;;;5012236;28;20100;-79
2021/01/19 01:48:44;;;;;;;23.92;11.75;;;10.00;99.90;;;;;;5028738;28;20029;-82
2021/01/19 01:51:11;;;;;;;24.90;11.27;;;10.00;99.90;;;;;;5030088;28;20022;-84
2021/01/19 01:53:38;;;;;;;22.73;11.13;;;10.00;99.90;;;;;;5028516;28;20091;-84
2021/01/19 01:56:06;;;;;;;25.38;12.05;;;10.00;99.90;;;;;;5028814;28;20053;-82
2021/01/19 01:58:32;;;;;;;25.50;11.88;;;10.00;99.90;;;;;;5030071;28;20033;-79
2021/01/19 02:00:58;;;;;;;26.83;12.43;;;10.00;99.90;;;;;;5028661;28;20412;-81
2021/01/19 02:03:24;;;;;;;28.90;12.85;;;10.00;99.90;;;;;;5029811;28;20036;-81
2021/01/19 02:05:50;;;;;;;23.77;11.63;;;10.00;99.90;;;;;;5011894;28;20041;-80
2021/01/19 02:08:23;;;;;;;25.75;13.07;;;10.00;99.90;;;;;;5011051;28;20087;-80
2021/01/19 02:11:09;;;;;;;21.92;11.38;;;10.00;99.90;;;;;;5029627;28;20025;-83
2021/01/19 02:13:57;;;;;;;20.98;11.85;;;10.00;99.90;;;;;;5028411;28;20133;-79
2021/01/19 02:16:32;;;;;;;26.48;12.93;;;10.00;99.90;;;;;;5028332;28;20041;-80
2021/01/19 02:19:19;;;;;;;22.25;10.65;;;10.00;99.90;;;;;;5029565;28;20120;-81
2021/01/19 02:22:27;;;;;;;18.92;9.63;;;10.00;99.90;;;;;;5029555;28;20460;-79
2021/01/19 02:25:33;;;;;;;14.98;8.15;;;10.00;99.90;;;;;;5029283;28;20030;-80
2021/01/19 02:28:13;;;;;;;14.68;8.00;;;10.00;99.90;;;;;;5029502;28;20025;-81
2021/01/19 02:30:42;;;;;;;;;;;10.00;99.90;;;;;;5029753;28;20441;-80
2021/01/19 02:33:15;;;;;;;12.18;6.32;;;10.00;99.90;;;;;;5029245;28;19909;-82
2021/01/19 02:35:47;;;;;;;13.60;6.75;;;10.00;99.90;;;;;;5028019;28;20033;-82
2021/01/19 02:38:13;;;;;;;11.88;6.80;;;10.00;99.90;;;;;;5029133;28;20395;-81
2021/01/19 02:40:39;;;;;;;13.93;7.00;;;10.00;99.90;;;;;;5027777;28;20021;-81
2021/01/19 02:43:20;;;;;;;11.32;5.90;;;10.00;99.90;;;;;;5011199;28;20378;-81
2021/01/19 02:45:46;;;;;;;14.68;7.07;;;10.00;99.90;;;;;;5029098;28;20029;-82
2021/01/19 02:48:12;;;;;;;11.07;5.38;;;10.00;99.90;;;;;;5027660;28;20033;-80
2021/01/19 02:50:38;;;;;;;10.52;6.05;;;10.00;99.90;;;;;;5028990;28;20064;-79
2021/01/19 02:53:06;;;;;;;15.98;6.20;;;10.00;99.90;;;;;;5011147;28;20029;-82
2021/01/19 02:55:32;;;;;;;12.13;6.60;;;10.00;99.90;;;;;;5027500;28;20025;-81
2021/01/19 02:58:04;;;;;;;12.55;7.25;;;10.00;99.90;;;;;;5027677;28;20030;-82
2021/01/19 03:00:50;;;;;;;13.23;7.18;;;10.00;99.90;;;;;;5028596;28;20025;-80
2021/01/19 03:03:16;;;;;;;11.60;6.53;;;10.10;99.90;;;;;;5023614;28;20029;-80
2021/01/19 03:05:43;;;;;;;13.02;7.63;;;10.10;99.90;;;;;;5027113;28;20029;-81
2021/01/19 03:08:11;;;;;;;14.82;7.40;;;10.10;99.90;;;;;;5027402;28;20029;-79
2021/01/19 03:10:42;;;;;;;17.27;8.20;;;10.10;99.90;;;;;;5027396;28;20025;-80
2021/01/19 03:13:12;;;;;;;13.13;8.00;;;10.10;99.90;;;;;;5029109;28;20478;-80
2021/01/19 03:15:39;;;;;;;12.55;7.32;;;10.10;99.90;;;;;;5027046;28;20049;-79
2021/01/19 03:18:09;;;;;;;14.93;7.32;;;10.10;99.90;;;;;;5027109;28;20021;-79
2021/01/19 03:20:35;;;;;;;17.20;7.88;;;10.00;99.90;;;;;;5028265;28;20484;-81
2021/01/19 03:23:01;;;;;;;15.02;7.93;;;10.00;99.90;;;;;;5010638;28;20032;-81
2021/01/19 03:25:27;;;;;;;15.27;8.63;;;10.00;99.90;;;;;;5027163;28;20056;-82
2021/01/19 03:27:53;;;;;;;13.80;8.57;;;10.00;99.90;;;;;;5027087;28;20025;-81
2021/01/19 03:30:19;;;;;;;13.73;8.43;;;10.00;99.90;;;;;;5026770;28;20040;-79
2021/01/19 03:32:45;;;;;;;13.00;8.23;;;10.00;99.90;;;;;;5028044;28;20028;-77
2021/01/19 03:35:11;;;;;;;13.68;7.72;;;10.00;99.90;;;;;;5027037;28;20120;-82
2021/01/19 03:37:37;;;;;;;16.67;8.38;;;10.00;99.90;;;;;;5028088;28;20079;-78
2021/01/19 03:40:06;;;;;;;13.65;7.60;;;10.00;99.90;;;;;;5026667;28;20396;-80
2021/01/19 03:42:32;;;;;;;15.88;8.18;;;10.00;99.90;;;;;;5027123;28;20317;-79
2021/01/19 03:44:58;;;;;;;17.23;8.60;;;10.00;99.90;;;;;;5026677;28;20108;-80
2021/01/19 03:47:23;;;;;;;16.05;8.70;;;10.00;99.90;;;;;;5026798;28;20034;-80
2021/01/19 03:49:49;;;;;;;13.57;7.53;;;10.00;99.90;;;;;;5026687;28;20033;-80
2021/01/19 03:52:15;;;;;;;15.63;8.80;;;10.00;99.90;;;;;;5026654;28;20075;-80
2021/01/19 03:54:41;;;;;;;17.50;9.75;;;10.00;99.90;;;;;;5026649;28;20055;-81
2021/01/19 03:57:06;;;;;;;18.38;9.95;;;10.00;99.90;;;;;;5026611;28;20453;-81
2021/01/19 03:59:33;;;;;;;13.88;8.18;;;10.10;99.90;;;;;;5028084;28;20167;-81
2021/01/19 04:01:58;;;;;;;15.38;8.77;;;10.00;99.90;;;;;;5027662;28;20029;-78
2021/01/19 04:04:24;;;;;;;14.75;8.73;;;10.10;99.90;;;;;;5010362;28;20120;-81
2021/01/19 04:06:49;;;;;;;14.65;7.95;;;10.10;99.90;;;;;;5027728;28;20030;-80
2021/01/19 04:09:15;;;;;;;10.48;7.00;;;10.10;99.90;;;;;;5026697;28;20068;-79
2021/01/19 04:11:41;;;;;;;14.07;8.10;;;10.10;99.90;;;;;;5026287;28;20026;-79
2021/01/19 04:14:06;;;;;;;11.73;6.82;;;10.10;99.90;;;;;;5026507;28;20036;-81
2021/01/19 04:16:32;;;;;;;12.52;6.88;;;10.10;99.90;;;;;;5010145;28;20135;-79
2021/01/19 04:18:58;;;;;;;14.43;7.60;;;10.10;99.90;;;;;;5026499;28;20029;-79
2021/01/19 04:21:25;;;;;;;12.23;6.97;;;10.10;99.90;;;;;;5009882;28;20480;-83
2021/01/19 04:23:51;;;;;;;12.68;7.30;;;10.10;99.90;;;;;;5026513;28;20592;-79
2021/01/19 04:26:16;;;;;;;12.85;7.03;;;10.10;99.90;;;;;;5026318;28;20033;-79
2021/01/19 04:28:42;;;;;;;15.13;7.63;;;10.10;99.90;;;;;;5010014;28;20484;-81
2021/01/19 04:31:08;;;;;;;13.75;7.32;;;10.10;99.90;;;;;;5027599;28;20060;-78
2021/01/19 04:33:33;;;;;;;11.32;7.07;;;10.10;99.90;;;;;;5013280;28;20470;-79
2021/01/19 04:35:59;;;;;;;12.95;7.40;;;10.10;99.90;;;;;;5031367;28;20033;-80
2021/01/19 04:38:25;;;;;;;10.82;6.18;;;10.10;99.90;;;;;;5030353;28;20409;-82
2021/01/19 04:40:51;;;;;;;10.68;7.13;;;10.10;99.90;;;;;;5031477;28;20030;-80
2021/01/19 04:43:17;;;;;;;11.77;7.60;;;10.10;99.90;;;;;;5030135;28;20464;-79
2021/01/19 04:45:44;;;;;;;10.68;6.57;;;10.10;99.90;;;;;;5030045;28;20034;-80
2021/01/19 04:48:09;;;;;;;10.88;6.53;;;10.10;99.90;;;;;;5013499;28;20060;-81
2021/01/19 04:50:36;;;;;;;10.90;6.38;;;10.20;99.90;;;;;;5029902;28;20341;-79
2021/01/19 04:53:03;;;;;;;10.90;5.65;;;10.20;99.90;;;;;;5031021;28;20034;-79
2021/01/19 04:55:34;;;;;;;9.52;5.50;;;10.20;99.90;;;;;;5031362;28;20057;-80
2021/01/19 04:58:02;;;;;;;12.13;6.10;;;10.20;99.90;;;;;;5014268;28;20033;-81
2021/01/19 05:00:34;;;;;;;10.80;5.65;;;10.20;99.90;;;;;;5030875;28;20032;-80
2021/01/19 05:03:03;;;;;;;10.00;5.55;;;10.20;99.90;;;;;;5031202;28;20413;-82
2021/01/19 05:05:38;;;;;;;10.20;5.40;;;10.20;99.90;;;;;;5030840;28;20404;-81
2021/01/19 05:08:15;;;;;;;8.15;4.82;;;10.20;99.90;;;;;;5030899;28;20037;-82
2021/01/19 05:10:47;;;;;;;8.35;4.72;;;10.20;99.90;;;;;;5030989;28;20379;-79
2021/01/19 05:13:14;;;;;;;6.70;4.40;;;10.20;99.90;;;;;;5030804;28;20033;-79
2021/01/19 05:15:48;;;;;;;6.80;4.20;;;10.20;99.90;;;;;;5030665;28;20084;-80
2021/01/19 05:18:17;;;;;;;7.20;4.43;;;10.20;99.90;;;;;;5029469;28;20025;-80
2021/01/19 05:20:48;;;;;;;7.05;3.63;;;10.20;99.90;;;;;;5012755;28;20424;-79
2021/01/19 05:23:21;;;;;;;6.63;3.70;;;10.20;99.90;;;;;;5029318;28;20448;-79
2021/01/19 05:26:01;;;;;;;4.90;3.03;;;10.30;99.90;;;;;;5013706;28;20029;-82
2021/01/19 05:28:31;;;;;;;6.28;3.42;;;10.30;99.90;;;;;;5012889;28;20026;-81
2021/01/19 05:30:56;;;;;;;7.25;3.40;;;10.30;99.90;;;;;;5029184;28;20033;-81
2021/01/19 05:33:22;;;;;;;6.13;3.75;;;10.30;99.90;;;;;;5012565;28;20116;-82
2021/01/19 05:35:48;;;;;;;7.78;4.22;;;10.30;99.90;;;;;;5029098;28;20421;-79
2021/01/19 05:38:14;;;;;;;7.80;3.83;;;10.40;99.90;;;;;;5029109;28;20099;-82
2021/01/19 05:40:46;;;;;;;8.55;4.15;;;10.40;99.90;;;;;;5012282;28;20037;-79
2021/01/19 05:43:12;;;;;;;7.00;3.72;;;10.30;99.90;;;;;;5028719;28;20029;-81
2021/01/19 05:45:50;;;;;;;6.32;3.88;;;10.40;99.90;;;;;;5028712;28;20116;-80
2021/01/19 05:48:16;;;;;;;6.35;4.40;;;10.30;99.90;;;;;;5028902;28;20025;-81
2021/01/19 05:50:43;;;;;;;8.88;4.50;;;10.40;99.90;;;;;;5028490;28;20025;-81
2021/01/19 05:53:16;;;;;;;6.95;4.43;;;10.40;99.90;;;;;;5012182;28;20032;-81
2021/01/19 05:55:43;;;;;;;5.50;3.92;;;10.40;99.90;;;;;;5028759;28;20036;-82
2021/01/19 05:58:34;;;;;;;10.75;4.53;;;10.40;99.90;;;;;;5029710;28;20045;-80
2021/01/19 06:01:01;;;;;;;6.07;3.63;;;10.40;99.90;;;;;;5029869;28;20029;-80
2021/01/19 06:03:29;;;;;;;4.65;3.13;;;10.40;99.90;;;;;;5028560;28;20030;-80
2021/01/19 06:05:54;;;;;;;5.00;3.20;;;10.40;99.90;;;;;;5028502;28;20041;-80
2021/01/19 06:08:23;;;;;;;4.25;2.58;;;10.40;99.90;;;;;;5011887;28;20437;-81
2021/01/19 06:10:49;;;;;;;6.63;3.30;;;10.40;99.90;;;;;;5028225;28;20021;-81
2021/01/19 06:13:18;;;;;;;7.20;3.30;;;10.40;99.90;;;;;;5028319;28;20033;-79
2021/01/19 06:15:44;;;;;;;6.15;3.08;;;10.50;99.90;;;;;;5029458;28;20076;-80
2021/01/19 06:18:10;;;;;;;6.85;3.20;;;10.50;99.90;;;;;;5028515;28;20441;-82
2021/01/19 06:20:40;;;;;;;8.45;3.15;;;10.50;99.90;;;;;;5028222;28;20113;-80
2021/01/19 06:23:07;;;;;;;6.13;2.88;;;10.50;99.90;;;;;;5028014;28;20025;-79
2021/01/19 06:25:33;;;;;;;14.15;2.88;;;10.60;99.90;;;;;;5029471;28;20095;-81
2021/01/19 06:28:08;;;;;;;17.95;3.22;;;10.60;99.90;;;;;;5011830;28;20030;-81
2021/01/19 06:30:33;;;;;;;24.00;5.03;;;10.60;99.90;;;;;;5011473;28;20064;-79
2021/01/19 06:33:01;;;;;;;16.17;3.08;;;10.70;99.90;;;;;;5027933;28;20065;-79
2021/01/19 06:35:26;;;;;;;24.52;3.67;;;10.80;99.90;;;;;;5027692;28;20120;-79
2021/01/19 06:37:53;;;;;;;16.52;3.20;;;10.80;99.90;;;;;;5027547;28;20117;-80
2021/01/19 06:40:24;;;;;;;15.70;2.15;;;10.80;99.90;;;;;;5027710;28;20033;-80
2021/01/19 06:43:04;;;;;;;18.67;2.78;;;10.90;99.90;;;;;;5027602;28;20060;-81
2021/01/19 06:45:30;;;;;;;11.68;2.72;;;10.90;99.90;;;;;;5028980;28;20409;-79
2021/01/19 06:47:58;;;;;;;12.15;2.03;;;11.00;99.90;;;;;;5027663;28;20107;-80
2021/01/19 06:50:29;;;;;;;11.27;2.03;;;11.00;99.90;;;;;;5027660;28;20037;-79
2021/01/19 06:53:03;;;;;;;7.80;1.77;;;11.00;99.90;;;;;;5028844;28;20024;-82
2021/01/19 06:55:58;;;;;;;14.02;2.53;;;11.00;99.90;;;;;;5028267;28;20025;-79
2021/01/19 06:58:42;;;;;;;9.18;1.92;;;11.00;99.90;;;;;;5027450;28;20052;-82
2021/01/19 07:01:12;;;;;;;7.05;1.73;;;11.00;99.90;;;;;;5027384;28;20022;-79
2021/01/19 07:03:40;;;;;;;12.73;2.38;;;11.00;99.90;;;;;;5028821;28;20049;-81
2021/01/19 07:06:09;;;;;;;12.02;2.05;;;11.10;99.90;;;;;;5028477;28;20109;-82
2021/01/19 07:09:23;;;;;;;10.13;1.67;;;11.00;99.90;;;;;;5028393;28;20059;-80
2021/01/19 07:12:05;;;;;;;12.70;2.65;;;11.10;99.90;;;;;;5027608;28;20033;-81
2021/01/19 07:14:57;;;;;;;8.80;2.30;;;11.00;99.90;;;;;;5027101;28;20034;-79
2021/01/19 07:17:38;;;;;;;6.35;1.60;;;11.10;99.90;;;;;;5027207;28;20148;-81
2021/01/19 07:20:05;;;;;;;14.40;3.10;;;11.10;99.90;;;;;;5026963;28;20499;-79
2021/01/19 07:22:57;;;;;;;27.15;2.30;;;11.10;99.90;;;;;;5010579;28;20451;-81
2021/01/19 07:25:23;;;;;;;13.57;2.15;;;11.10;99.90;;;;;;5028301;28;20036;-79
2021/01/19 07:27:49;;;;;;;9.57;1.60;;;11.10;99.90;;;;;;5027087;28;20018;-81
2021/01/19 07:30:16;;;;;;;10.02;1.90;;;11.10;99.90;;;;;;5028345;28;20481;-78
2021/01/19 07:32:47;;;;;;;10.32;2.22;;;11.10;99.90;;;;;;5027127;28;20403;-80
2021/01/19 07:35:16;;;;;;;14.77;2.10;;;11.10;99.90;;;;;;5026772;28;20022;-79
2021/01/19 07:37:41;;;;;;;13.75;2.08;;;11.10;99.90;;;;;;5026907;28;20487;-80
2021/01/19 07:40:20;;;;;;;9.13;1.70;;;11.10;99.90;;;;;;5026561;28;20049;-79
2021/01/19 07:42:47;;;;;;;13.93;2.60;;;11.10;99.90;;;;;;5026475;28;20040;-81
2021/01/19 07:45:13;;;;;;;15.45;2.47;;;11.10;99.90;;;;;;5026707;28;20064;-80
2021/01/19 07:47:44;;;;;;;9.88;1.70;;;11.00;99.90;;;;;;5026868;28;20390;-80
2021/01/19 07:50:15;;;;;;;11.18;1.90;;;11.10;99.90;;;;;;5027874;28;20033;-82
2021/01/19 07:52:43;;;;;;;13.75;4.65;;;11.10;99.90;;;;;;5027691;28;20058;-79
2021/01/19 07:55:21;;;;;;;12.98;1.38;;;11.10;99.90;;;;;;5027842;28;20022;-80
2021/01/19 07:57:51;;;;;;;4.03;0.82;;;11.10;99.90;;;;;;5026498;28;20116;-81
2021/01/19 08:00:25;;;;;;;4.38;1.20;;;11.00;99.90;;;;;;5027749;28;20025;-81
2021/01/19 08:03:04;;;;;;;8.15;1.17;;;11.00;99.90;;;;;;5026173;28;20113;-80
2021/01/19 08:05:29;;;;;;;10.70;2.42;;;11.00;99.90;;;;;;5026463;28;20064;-81
2021/01/19 08:07:56;;;;;;;3.85;0.93;;;11.00;99.90;;;;;;5012998;28;20045;-81
2021/01/19 08:10:24;;;;;;;5.95;1.27;;;11.00;99.90;;;;;;5030865;28;20526;-79
2021/01/19 08:12:52;;;;;;;6.50;1.17;;;11.00;99.90;;;;;;5032437;28;20029;-81
2021/01/19 08:15:31;;;;;;;5.05;1.17;;;11.00;99.90;;;;;;5031033;28;20492;-79
2021/01/19 08:17:58;;;;;;;6.40;1.60;;;11.00;99.90;;;;;;5030934;28;20080;-80
2021/01/19 08:20:35;;;;;;;10.15;1.50;;;11.00;99.90;;;;;;5030912;28;20025;-81
2021/01/19 08:23:16;;;;;;;2.97;1.27;;;11.00;99.90;;;;;;5032026;28;20492;-80
2021/01/19 08:25:42;;;;;;;4.78;0.90;;;11.00;99.90;;;;;;5030488;28;20032;-81
2021/01/19 08:28:09;;;;;;;3.65;1.02;;;11.00;99.90;;;;;;5013903;28;20029;-81
2021/01/19 08:30:37;;;;;;;5.50;1.00;;;11.00;99.90;;;;;;5014218;28;20048;-78
2021/01/19 08:33:03;;;;;;;5.22;1.27;;;11.00;99.90;;;;;;5030529;28;20124;-80
2021/01/19 08:35:30;;;;;;;3.40;0.82;;;11.00;99.90;;;;;;5014487;28;20112;-80
2021/01/19 08:38:01;;;;;;;5.35;0.80;;;11.00;99.90;;;;;;5014338;28;20037;-81
2021/01/19 08:40:31;;;;;;;1.75;0.80;;;11.10;99.90;;;;;;5031499;28;20434;-81
2021/01/19 08:42:57;;;;;;;0.55;0.30;;;11.10;99.90;;;;;;5031600;28;20037;-80
2021/01/19 08:45:34;;;;;;;2.70;0.70;;;11.10;99.90;;;;;;5029976;28;20124;-81
2021/01/19 08:48:01;;;;;;;1.55;0.35;;;11.10;99.90;;;;;;5029880;28;20112;-81
2021/01/19 08:50:30;;;;;;;1.30;0.22;;;11.10;99.90;;;;;;5013307;28;20079;-80
2021/01/19 08:52:56;;;;;;;3.00;0.55;;;11.10;99.90;;;;;;5029790;28;20475;-78
2021/01/19 08:55:24;;;;;;;2.60;0.40;;;11.10;99.90;;;;;;5029821;28;20037;-82
2021/01/19 08:57:58;;;;;;;2.03;0.40;;;11.10;99.90;;;;;;5013227;28;20533;-79
2021/01/19 09:00:32;;;;;;;2.47;0.52;;;11.10;99.90;;;;;;5013154;28;20037;-81
2021/01/19 09:02:59;;;;;;;1.58;0.50;;;11.10;99.90;;;;;;5030787;28;20022;-80
2021/01/19 09:05:30;;;;;;;1.15;0.40;;;11.10;99.90;;;;;;5029468;28;20087;-80
2021/01/19 09:07:57;;;;;;;3.90;0.60;;;11.10;99.90;;;;;;5013211;28;20435;-81
2021/01/19 09:10:28;;;;;;;2.45;0.80;;;11.20;99.90;;;;;;5029284;28;20029;-81
2021/01/19 09:12:56;;;;;;;2.17;0.52;;;11.20;99.90;;;;;;5028883;28;20057;-80
2021/01/19 09:15:22;;;;;;;3.67;0.60;;;11.20;99.90;;;;;;5030534;28;20056;-80
2021/01/19 09:17:55;;;;;;;1.95;0.55;;;11.20;99.90;;;;;;5028896;28;20435;-79
2021/01/19 09:20:21;;;;;;;2.97;0.80;;;11.20;99.90;;;;;;5030025;28;20022;-79
2021/01/19 09:22:47;;;;;;;9.52;1.02;;;11.20;99.90;;;;;;5028948;28;20385;-81
2021/01/19 09:25:13;;;;;;;3.90;0.70;;;11.20;99.90;;;;;;5029071;28;20037;-79
2021/01/19 09:27:40;;;;;;;4.15;1.23;;;11.20;99.90;;;;;;5012651;28;20044;-82
2021/01/19 09:30:07;;;;;;;2.58;0.60;;;11.20;99.90;;;;;;5028961;28;20030;-80
2021/01/19 09:32:33;;;;;;;5.05;1.85;;;11.30;99.90;;;;;;5029858;28;20100;-80
2021/01/19 09:35:03;;;;;;;3.63;0.68;;;11.30;99.90;;;;;;5012461;28;20124;-81
2021/01/19 09:37:28;;;;;;;8.48;1.38;;;11.30;99.90;;;;;;5029661;28;20017;-80
2021/01/19 09:39:54;;;;;;;4.95;0.85;;;11.30;99.90;;;;;;5012303;28;20407;-79
2021/01/19 09:42:20;;;;;;;4.65;0.80;;;11.30;99.90;;;;;;5012583;28;20537;-80
2021/01/19 09:44:47;;;;;;;5.53;0.82;;;11.30;99.90;;;;;;5028943;28;20022;-80
2021/01/19 09:47:14;;;;;;;4.97;0.80;;;11.30;99.90;;;;;;5012538;28;20057;-80
2021/01/19 09:49:42;;;;;;;4.13;0.80;;;11.30;99.90;;;;;;5028795;28;20112;-79
2021/01/19 09:52:12;;;;;;;10.75;1.60;;;11.30;99.90;;;;;;5029837;28;20032;-82
2021/01/19 09:54:38;;;;;;;5.97;1.55;;;11.30;99.90;;;;;;5012421;28;20028;-81
2021/01/19 09:57:06;;;;;;;4.05;1.10;;;11.30;99.90;;;;;;5012415;28;20380;-80
2021/01/19 09:59:32;;;;;;;6.43;1.13;;;11.30;99.90;;;;;;5028594;28;20029;-78
2021/01/19 10:01:59;;;;;;;6.30;1.67;;;11.30;99.90;;;;;;5028558;28;20029;-80
2021/01/19 10:04:26;;;;;;;5.45;1.17;;;11.30;99.90;;;;;;5011962;28;20052;-82
2021/01/19 10:07:08;;;;;;;9.95;1.65;;;11.30;99.90;;;;;;5029764;28;20044;-80
2021/01/19 10:09:35;;;;;;;9.90;1.65;;;11.30;99.90;;;;;;5029692;28;20064;-79
2021/01/19 10:12:08;;;;;;;10.15;1.70;;;11.30;99.90;;;;;;5029230;28;20153;-81
2021/01/19 10:14:41;;;;;;;12.98;2.05;;;11.30;99.90;;;;;;5028546;28;20045;-79
2021/01/19 10:17:08;;;;;;;7.18;1.85;;;11.30;99.90;;;;;;5030050;28;20040;-77
2021/01/19 10:19:36;;;;;;;11.68;2.40;;;11.40;99.90;;;;;;5029925;28;20025;-80
2021/01/19 10:22:09;;;;;;;13.68;2.33;;;11.40;99.90;;;;;;5029431;28;20060;-78
2021/01/19 10:24:36;;;;;;;6.03;2.17;;;11.40;99.90;;;;;;5027917;28;20407;-80
2021/01/19 10:27:04;;;;;;;8.07;1.83;;;11.40;99.90;;;;;;5027945;28;20037;-78
2021/01/19 10:29:38;;;;;;;11.13;2.13;;;11.40;99.90;;;;;;5028710;28;20025;-78
2021/01/19 10:32:11;;;;;;;7.13;2.33;;;11.40;99.90;;;;;;5028513;28;20095;-79
2021/01/19 10:34:38;;;;;;;8.32;1.90;;;11.40;99.90;;;;;;5028086;28;20025;-79
2021/01/19 10:37:04;;;;;;;10.13;2.30;;;11.40;99.90;;;;;;5029287;28;20025;-80
2021/01/19 10:39:30;;;;;;;9.00;1.98;;;11.40;99.90;;;;;;5029489;28;20038;-79
2021/01/19 10:41:58;;;;;;;8.13;1.58;;;11.40;99.90;;;;;;5028077;28;20073;-77
2021/01/19 10:44:25;;;;;;;7.05;1.10;;;11.30;99.90;;;;;;5011493;28;20037;-82
2021/01/19 10:46:59;;;;;;;7.65;1.90;;;11.30;99.90;;;;;;5011084;28;20034;-79
2021/01/19 10:49:32;;;;;;;9.27;1.23;;;11.30;99.90;;;;;;5028850;28;20039;-80
2021/01/19 10:51:58;;;;;;;14.02;2.13;;;11.20;99.90;;;;;;5028514;28;20028;-81
2021/01/19 10:54:25;;;;;;;10.43;1.90;;;11.10;99.90;;;;;;5011537;28;20120;-78
2021/01/19 10:57:05;;;;;;;9.10;1.63;;;11.10;99.90;;;;;;5011285;28;20399;-79
2021/01/19 10:59:32;;;;;;;11.98;3.72;;;11.10;99.90;;;;;;5028551;28;20025;-80
2021/01/19 11:01:58;;;;;;;6.25;1.40;;;11.10;99.90;;;;;;5028216;28;20021;-78
2021/01/19 11:04:24;;;;;;;5.50;1.50;;;11.00;99.90;;;;;;5027225;28;20040;-81
2021/01/19 11:06:49;;;;;;;9.77;1.92;;;11.00;99.90;;;;;;5027067;28;20067;-80
2021/01/19 11:09:16;;;;;;;10.77;1.77;;;11.00;99.90;;;;;;5028394;28;20387;-83
2021/01/19 11:11:42;;;;;;;12.40;2.67;;;11.00;99.90;;;;;;5027378;28;20029;-82
2021/01/19 11:14:09;;;;;;;5.68;1.40;;;11.00;99.90;;;;;;5026951;28;20041;-79
2021/01/19 11:16:40;;;;;;;4.40;1.10;;;11.10;99.90;;;;;;5026951;28;20116;-80
2021/01/19 11:19:08;;;;;;;4.07;0.82;;;11.00;99.90;;;;;;5028173;28;20053;-80
2021/01/19 11:21:36;;;;;;;9.65;1.67;;;11.00;99.90;;;;;;5026858;28;20037;-80
2021/01/19 11:24:04;;;;;;;7.95;2.78;;;11.00;99.90;;;;;;5026885;28;20099;-78
2021/01/19 11:26:30;;;;;;;12.52;1.50;;;11.00;99.90;;;;;;5010538;28;20053;-80
2021/01/19 11:28:57;;;;;;;6.85;1.95;;;11.00;99.90;;;;;;5028033;28;20025;-81
2021/01/19 11:31:24;;;;;;;8.30;2.33;;;11.10;99.90;;;;;;5027766;28;20091;-81
2021/01/19 11:33:50;;;;;;;7.72;1.02;;;11.10;99.90;;;;;;5027933;28;20384;-79
2021/01/19 11:36:23;;;;;;;6.35;1.30;;;11.10;99.90;;;;;;5026064;28;20124;-79
2021/01/19 11:38:50;;;;;;;9.57;2.13;;;11.10;99.90;;;;;;5027707;28;20022;-81
2021/01/19 11:41:18;;;;;;;6.03;2.80;;;11.20;99.90;;;;;;5025876;28;20039;-79
2021/01/19 11:43:43;;;;;;;7.00;1.80;;;11.20;99.90;;;;;;5026139;28;20025;-79
2021/01/19 11:46:10;;;;;;;6.28;1.25;;;11.30;99.90;;;;;;5026438;28;20112;-79
2021/01/19 11:48:35;;;;;;;4.70;1.35;;;11.30;99.90;;;;;;5027524;28;20026;-81
2021/01/19 11:51:02;;;;;;;8.10;1.30;;;11.30;99.90;;;;;;5026368;28;20034;-80
2021/01/19 11:53:28;;;;;;;3.40;0.88;;;11.30;99.90;;;;;;5027617;28;20022;-79
2021/01/19 11:55:53;;;;;;;4.32;1.00;;;11.30;99.90;;;;;;5026487;28;20076;-80
2021/01/19 11:58:21;;;;;;;5.63;1.17;;;11.30;99.90;;;;;;5042746;28;20042;-81
2021/01/19 12:00:47;;;;;;;5.40;1.60;;;11.30;99.90;;;;;;5026769;28;20030;-80
2021/01/19 12:03:13;;;;;;;4.82;0.98;;;11.30;99.90;;;;;;5010225;28;20033;-82
2021/01/19 12:05:40;;;;;;;5.75;1.30;;;11.30;99.90;;;;;;5009753;28;20504;-80
2021/01/19 12:08:06;;;;;;;7.43;1.50;;;11.30;99.90;;;;;;5009772;28;20026;-83
2021/01/19 12:10:31;;;;;;;5.40;1.08;;;11.40;99.90;;;;;;5026157;28;20041;-78
2021/01/19 12:12:57;;;;;;;3.25;1.58;;;11.40;99.90;;;;;;5027043;28;20026;-79
2021/01/19 12:15:23;;;;;;;2.95;1.02;;;11.40;99.90;;;;;;5027177;28;20109;-80
2021/01/19 12:17:51;;;;;;;6.70;1.73;;;11.50;99.90;;;;;;5026034;28;20036;-80
2021/01/19 12:20:17;;;;;;;7.03;1.65;;;11.50;99.90;;;;;;5009454;28;20037;-78
2021/01/19 12:22:43;;;;;;;3.80;1.00;;;11.50;99.90;;;;;;5025890;28;20396;-80
2021/01/19 12:25:09;;;;;;;6.35;1.10;;;11.60;99.90;;;;;;5027462;28;20034;-80
2021/01/19 12:27:35;;;;;;;4.78;1.10;;;11.50;99.90;;;;;;5027234;28;20037;-81
2021/01/19 12:30:00;;;;;;;5.95;2.15;;;11.50;99.90;;;;;;5025960;28;20116;-78
2021/01/19 12:32:26;;;;;;;1.65;0.80;;;11.50;99.90;;;;;;5027049;28;20083;-80
2021/01/19 12:34:52;;;;;;;4.25;0.95;;;11.50;99.90;;;;;;5009224;28;20033;-82
2021/01/19 12:37:17;;;;;;;3.80;1.10;;;11.60;99.90;;;;;;5009081;28;20036;-81
2021/01/19 12:39:43;;;;;;;2.75;0.95;;;11.60;99.90;;;;;;5026574;28;20108;-79
2021/01/19 12:42:10;;;;;;;2.70;0.63;;;11.70;99.90;;;;;;5025905;28;20029;-81
2021/01/19 12:44:36;;;;;;;2.20;0.90;;;11.70;99.90;;;;;;5042610;28;20033;-81
2021/01/19 12:47:02;;;;;;;1.55;0.80;;;11.70;99.90;;;;;;5026079;28;20059;-80
2021/01/19 12:49:28;;;;;;;1.10;0.50;;;11.80;99.90;;;;;;5025731;28;20045;-81